Terminal Aerodrome Forecast
Issued by NWS

Home | Current Version | Previous Version | Graphics & Text | Print | Product List | Glossary On
Versions: 1 2 3 4 5 6 7 8 9 10 11 12 13 14 15
933
FTUS43 KMPX 231131
TAFAXN
TAF
KAXN 231131Z 2312/2412 29013KT P6SM BKN030
     FM231300 31016G25KT P6SM BKN025 OVC040
     FM231900 31016G25KT P6SM OVC045
     FM240100 30009KT P6SM SCT070=

USA.gov is the U.S. government's official web portal to all federal, state and local government web resources and services.